createdAt,value
2023-02-23T00:00:15.028Z,101726.75
2023-02-23T00:00:32.400Z,101722.34
2023-02-23T00:01:00.477Z,101720.63
2023-02-23T00:01:19.974Z,101724.16
2023-02-23T00:01:32.594Z,101724.16
2023-02-23T00:01:45.203Z,101720.66
2023-02-23T00:02:05.766Z,101717.19
2023-02-23T00:02:19.457Z,101724.19
2023-02-23T00:02:32.095Z,101720.69
2023-02-23T00:02:44.873Z,101720.69
2023-02-23T00:03:01.107Z,101724.25
2023-02-23T00:03:14.378Z,101718.97
2023-02-23T00:03:27.149Z,101725.13
2023-02-23T00:03:40.721Z,101717.22
2023-02-23T00:03:56.307Z,101719.88
2023-02-23T00:04:09.201Z,101720.78
2023-02-23T00:04:23.553Z,101715.53
2023-02-23T00:04:37.169Z,101712.88
2023-02-23T00:04:49.770Z,101716.38
2023-02-23T00:05:02.504Z,101719.00
2023-02-23T00:05:15.181Z,101715.56
2023-02-23T00:05:30.810Z,101718.19
2023-02-23T00:05:43.428Z,101724.31
2023-02-23T00:05:56.074Z,101717.31
2023-02-23T00:06:09.696Z,101717.31
2023-02-23T00:06:23.333Z,101712.09
2023-02-23T00:06:37.426Z,101725.25
2023-02-23T00:06:52.234Z,101715.59
2023-02-23T00:07:06.276Z,101715.59
2023-02-23T00:07:20.154Z,101720.00
2023-02-23T00:07:32.707Z,101715.59
2023-02-23T00:07:46.131Z,101714.72
2023-02-23T00:07:59.148Z,101715.59
2023-02-23T00:08:12.751Z,101720.00
2023-02-23T00:08:28.274Z,101719.13
2023-02-23T00:08:41.139Z,101714.75
2023-02-23T00:08:54.060Z,101713.00
2023-02-23T00:09:10.866Z,101716.50
2023-02-23T00:09:24.089Z,101716.47
2023-02-23T00:09:36.793Z,101714.72
2023-02-23T00:09:50.870Z,101706.84
2023-02-23T00:10:05.030Z,101714.72
2023-02-23T00:10:19.530Z,101717.34
2023-02-23T00:10:32.151Z,101713.88
2023-02-23T00:10:44.736Z,101715.59
2023-02-23T00:11:00.347Z,101717.38
2023-02-23T00:11:13.057Z,101713.00
2023-02-23T00:11:28.187Z,101718.22
2023-02-23T00:11:40.882Z,101714.72
2023-02-23T00:11:55.871Z,101724.41
2023-02-23T00:12:08.566Z,101713.00
2023-02-23T00:12:21.320Z,101708.59
2023-02-23T00:12:34.496Z,101712.13
2023-02-23T00:12:49.345Z,101720.03
2023-02-23T00:13:05.015Z,101720.03
2023-02-23T00:13:17.640Z,101716.53
2023-02-23T00:13:30.291Z,101721.81
2023-02-23T00:13:46.250Z,101713.06
2023-02-23T00:14:01.293Z,101719.22
2023-02-23T00:14:13.894Z,101705.22
2023-02-23T00:14:31.207Z,101708.69
2023-02-23T00:14:44.103Z,101716.63
2023-02-23T00:14:56.699Z,101710.50
2023-02-23T00:15:09.849Z,101702.63
2023-02-23T00:15:24.081Z,101713.16
2023-02-23T00:15:36.962Z,101712.31
2023-02-23T00:15:49.530Z,101715.81
2023-02-23T00:16:05.076Z,101719.31
2023-02-23T00:16:20.462Z,101713.19
2023-02-23T00:16:33.177Z,101717.56
2023-02-23T00:16:46.404Z,101714.03
2023-02-23T00:17:00.034Z,101715.81
2023-02-23T00:17:15.158Z,101716.69
2023-02-23T00:17:28.336Z,101711.41
2023-02-23T00:17:41.832Z,101713.19
2023-02-23T00:17:56.348Z,101714.03
2023-02-23T00:18:09.300Z,101713.16
2023-02-23T00:18:22.954Z,101715.81
2023-02-23T00:18:45.031Z,101714.97
2023-02-23T00:19:00.609Z,101715.81
2023-02-23T00:19:14.120Z,101711.47
2023-02-23T00:19:27.272Z,101714.97
2023-02-23T00:19:43.497Z,101713.19
2023-02-23T00:19:57.545Z,101714.13
2023-02-23T00:20:12.091Z,101713.22
2023-02-23T00:20:27.400Z,101716.75
2023-02-23T00:20:44.572Z,101714.13
2023-02-23T00:20:57.782Z,101713.28
2023-02-23T00:21:15.292Z,101711.50
2023-02-23T00:21:31.366Z,101713.28
2023-02-23T00:21:44.143Z,101710.69
2023-02-23T00:21:58.881Z,101714.16
2023-02-23T00:22:12.758Z,101709.78
2023-02-23T00:22:25.600Z,101712.44
2023-02-23T00:22:40.223Z,101709.78
2023-02-23T00:22:55.402Z,101715.09
2023-02-23T00:23:08.800Z,101716.81
2023-02-23T00:23:21.419Z,101715.09
2023-02-23T00:23:34.283Z,101715.94
2023-02-23T00:23:51.641Z,101717.72
2023-02-23T00:24:06.537Z,101712.44
2023-02-23T00:24:20.899Z,101718.59
2023-02-23T00:24:36.616Z,101713.31
2023-02-23T00:24:50.245Z,101711.59
2023-02-23T00:25:07.472Z,101710.69
2023-02-23T00:25:20.093Z,101708.91
2023-02-23T00:25:32.689Z,101719.44
2023-02-23T00:25:46.382Z,101720.31
2023-02-23T00:26:00.347Z,101707.19
2023-02-23T00:26:14.012Z,101714.16
2023-02-23T00:26:31.567Z,101711.53
2023-02-23T00:26:45.339Z,101710.66
2023-02-23T00:26:58.071Z,101708.03
2023-02-23T00:27:12.952Z,101714.16
2023-02-23T00:27:27.387Z,101715.06
2023-02-23T00:27:46.099Z,101715.09
2023-02-23T00:27:59.298Z,101708.03
2023-02-23T00:28:11.956Z,101718.59
2023-02-23T00:28:24.563Z,101711.59
2023-02-23T00:28:37.931Z,101712.44
2023-02-23T00:28:52.135Z,101712.44
2023-02-23T00:29:08.574Z,101715.97
2023-02-23T00:29:22.959Z,101716.03
2023-02-23T00:29:39.648Z,101719.53
2023-02-23T00:29:53.051Z,101711.66
2023-02-23T00:30:07.455Z,101713.41
2023-02-23T00:30:21.611Z,101707.25
2023-02-23T00:30:35.740Z,101715.16
2023-02-23T00:30:48.762Z,101714.25
2023-02-23T00:31:02.487Z,101709.94
2023-02-23T00:31:15.444Z,101716.06
2023-02-23T00:31:29.041Z,101716.91
2023-02-23T00:31:41.742Z,101716.06
2023-02-23T00:31:56.192Z,101710.78
2023-02-23T00:32:10.262Z,101706.47
2023-02-23T00:32:24.110Z,101709.03
2023-02-23T00:32:36.949Z,101708.16
2023-02-23T00:32:52.585Z,101709.94
2023-02-23T00:33:05.237Z,101707.31
2023-02-23T00:33:17.842Z,101702.94
2023-02-23T00:33:30.623Z,101709.94
2023-02-23T00:33:44.327Z,101716.09
2023-02-23T00:33:58.762Z,101718.72
2023-02-23T00:34:13.695Z,101711.75
2023-02-23T00:34:26.296Z,101711.75
2023-02-23T00:34:39.114Z,101712.59
2023-02-23T00:34:51.887Z,101716.16
2023-02-23T00:35:09.940Z,101714.41
2023-02-23T00:35:24.877Z,101713.53
2023-02-23T00:35:37.650Z,101717.88
2023-02-23T00:35:50.333Z,101719.69
2023-02-23T00:36:08.515Z,101710.88
2023-02-23T00:36:23.096Z,101707.41
2023-02-23T00:36:36.595Z,101717.97
2023-02-23T00:36:54.272Z,101711.81
2023-02-23T00:37:08.626Z,101712.69
2023-02-23T00:37:23.016Z,101718.81
2023-02-23T00:37:35.752Z,101712.69
2023-02-23T00:37:49.158Z,101713.56
2023-02-23T00:38:01.739Z,101716.22
2023-02-23T00:38:15.323Z,101717.13
2023-02-23T00:38:28.192Z,101714.50
2023-02-23T00:38:41.929Z,101710.97
2023-02-23T00:38:56.008Z,101718.03
2023-02-23T00:39:17.861Z,101713.66
2023-02-23T00:39:30.510Z,101711.03
2023-02-23T00:39:44.452Z,101707.50
2023-02-23T00:39:57.372Z,101711.03
2023-02-23T00:40:14.606Z,101709.28
2023-02-23T00:40:27.363Z,101707.50
2023-02-23T00:40:41.070Z,101711.03
2023-02-23T00:40:53.758Z,101710.16
2023-02-23T00:41:08.993Z,101712.78
2023-02-23T00:41:24.003Z,101703.16
2023-02-23T00:41:36.741Z,101711.91
2023-02-23T00:41:50.004Z,101709.28
2023-02-23T00:42:03.653Z,101711.91
2023-02-23T00:42:16.447Z,101711.03
2023-02-23T00:42:32.308Z,101707.50
2023-02-23T00:42:46.481Z,101706.63
2023-02-23T00:42:59.070Z,101709.28
2023-02-23T00:43:11.662Z,101715.38
2023-02-23T00:43:25.212Z,101705.75
2023-02-23T00:43:38.921Z,101706.63
2023-02-23T00:43:54.903Z,101710.13
2023-02-23T00:44:08.966Z,101712.75
2023-02-23T00:44:24.646Z,101708.34
2023-02-23T00:44:40.625Z,101706.59
2023-02-23T00:44:53.308Z,101710.97
2023-02-23T00:45:10.941Z,101708.34
2023-02-23T00:45:23.672Z,101712.75
2023-02-23T00:45:37.089Z,101710.97
2023-02-23T00:45:50.840Z,101709.22
2023-02-23T00:46:05.795Z,101709.22
2023-02-23T00:46:21.406Z,101707.47
2023-02-23T00:46:34.238Z,101712.75
2023-02-23T00:46:51.704Z,101708.34
2023-02-23T00:47:04.626Z,101715.38
2023-02-23T00:47:19.439Z,101707.47
2023-02-23T00:47:32.049Z,101709.22
2023-02-23T00:47:45.173Z,101713.66
2023-02-23T00:47:57.823Z,101709.25
2023-02-23T00:48:10.901Z,101705.75
2023-02-23T00:48:23.633Z,101713.66
2023-02-23T00:48:37.245Z,101704.88
2023-02-23T00:48:51.462Z,101711.03
2023-02-23T00:49:05.226Z,101708.44
2023-02-23T00:49:19.351Z,101714.56
2023-02-23T00:49:32.101Z,101706.66
2023-02-23T00:49:45.163Z,101704.03
2023-02-23T00:49:57.973Z,101706.66
2023-02-23T00:50:14.907Z,101703.16
2023-02-23T00:50:28.205Z,101705.78
2023-02-23T00:50:41.879Z,101704.03
2023-02-23T00:50:58.990Z,101705.75
2023-02-23T00:51:12.359Z,101711.06
2023-02-23T00:51:27.242Z,101704.03
2023-02-23T00:51:40.194Z,101704.03
2023-02-23T00:51:53.127Z,101711.03
2023-02-23T00:52:06.878Z,101709.28
2023-02-23T00:52:19.618Z,101709.28
2023-02-23T00:52:33.068Z,101710.19
2023-02-23T00:52:45.678Z,101705.75
2023-02-23T00:52:59.672Z,101708.41
2023-02-23T00:53:12.331Z,101708.41
2023-02-23T00:53:27.231Z,101704.88
2023-02-23T00:53:40.945Z,101700.53
2023-02-23T00:53:54.536Z,101709.28
2023-02-23T00:54:07.992Z,101704.94
2023-02-23T00:54:21.859Z,101706.66
2023-02-23T00:54:34.801Z,101702.34
2023-02-23T00:54:47.396Z,101703.13
2023-02-23T00:55:00.163Z,101706.66
2023-02-23T00:55:15.425Z,101705.78
2023-02-23T00:55:28.030Z,101703.13
2023-02-23T00:55:41.452Z,101703.13
2023-02-23T00:55:54.464Z,101700.53
2023-02-23T00:56:08.987Z,101703.13
2023-02-23T00:56:22.193Z,101705.78
2023-02-23T00:56:34.985Z,101704.94
2023-02-23T00:56:48.728Z,101706.72
2023-02-23T00:57:01.729Z,101697.91
2023-02-23T00:57:14.426Z,101704.03
2023-02-23T00:57:27.050Z,101704.09
2023-02-23T00:57:40.612Z,101705.78
2023-02-23T00:57:54.244Z,101704.88
2023-02-23T00:58:09.649Z,101703.16
2023-02-23T00:58:22.774Z,101708.44
2023-02-23T00:58:35.434Z,101709.28
2023-02-23T00:58:48.046Z,101709.28
2023-02-23T00:59:00.653Z,101709.28
2023-02-23T00:59:15.182Z,101703.19
2023-02-23T00:59:29.696Z,101710.19
2023-02-23T00:59:42.290Z,101702.31
2023-02-23T00:59:54.882Z,101705.78
2023-02-23T01:00:17.449Z,101707.56
2023-02-23T01:00:31.752Z,101707.56
2023-02-23T01:00:44.400Z,101711.91
2023-02-23T01:00:59.272Z,101703.19
2023-02-23T01:01:15.057Z,101711.97
2023-02-23T01:01:28.226Z,101700.56
2023-02-23T01:01:42.022Z,101705.06
2023-02-23T01:01:55.616Z,101705.00
2023-02-23T01:02:08.769Z,101706.75
2023-02-23T01:02:21.565Z,101712.00
2023-02-23T01:02:35.403Z,101703.25
2023-02-23T01:02:48.412Z,101707.63
2023-02-23T01:03:01.901Z,101708.53
2023-02-23T01:03:14.750Z,101703.28
2023-02-23T01:03:28.192Z,101704.16
2023-02-23T01:03:42.687Z,101708.53
2023-02-23T01:03:55.311Z,101709.44
2023-02-23T01:04:09.861Z,101702.44
2023-02-23T01:04:23.189Z,101701.53
2023-02-23T01:04:35.906Z,101698.97
2023-02-23T01:04:48.642Z,101702.44
2023-02-23T01:05:01.259Z,101704.22
2023-02-23T01:05:14.474Z,101703.34
2023-02-23T01:05:27.670Z,101698.06
2023-02-23T01:05:40.275Z,101705.09
2023-02-23T01:05:55.310Z,101705.09
2023-02-23T01:06:10.572Z,101708.59
2023-02-23T01:06:23.415Z,101694.56
2023-02-23T01:06:37.795Z,101704.25
2023-02-23T01:06:50.669Z,101699.84
2023-02-23T01:07:06.455Z,101703.41
2023-02-23T01:07:19.055Z,101705.09
2023-02-23T01:07:32.670Z,101704.25
2023-02-23T01:07:46.536Z,101698.13
2023-02-23T01:07:59.172Z,101705.09
2023-02-23T01:08:12.304Z,101702.53
2023-02-23T01:08:25.077Z,101700.69
2023-02-23T01:08:40.571Z,101697.28
2023-02-23T01:08:56.690Z,101698.97
2023-02-23T01:09:13.660Z,101706.88
2023-02-23T01:09:28.459Z,101698.97
2023-02-23T01:09:41.234Z,101698.13
2023-02-23T01:09:54.160Z,101695.50
2023-02-23T01:10:19.223Z,101696.38
2023-02-23T01:10:32.064Z,101697.28
2023-02-23T01:10:52.625Z,101697.28
2023-02-23T01:11:07.373Z,101701.72
2023-02-23T01:11:21.682Z,101695.53
2023-02-23T01:11:34.752Z,101699.91
2023-02-23T01:11:47.426Z,101701.66
2023-02-23T01:12:01.679Z,101695.53
2023-02-23T01:12:14.642Z,101700.78
2023-02-23T01:12:28.262Z,101701.66
2023-02-23T01:12:40.883Z,101704.28
2023-02-23T01:12:53.834Z,101695.56
2023-02-23T01:13:06.452Z,101699.94
2023-02-23T01:13:20.395Z,101700.78
2023-02-23T01:13:33.155Z,101697.31
2023-02-23T01:13:47.151Z,101704.34
2023-02-23T01:14:01.516Z,101704.34
2023-02-23T01:14:16.821Z,101697.31
2023-02-23T01:14:29.536Z,101692.97
2023-02-23T01:14:42.574Z,101704.41
2023-02-23T01:14:55.208Z,101704.41
2023-02-23T01:15:09.315Z,101699.13
2023-02-23T01:15:22.035Z,101698.28
2023-02-23T01:15:34.730Z,101701.75
2023-02-23T01:15:48.250Z,101697.41
2023-02-23T01:16:02.122Z,101695.59
2023-02-23T01:16:17.243Z,101700.00
2023-02-23T01:16:32.210Z,101697.34
2023-02-23T01:16:44.918Z,101699.13
2023-02-23T01:16:57.537Z,101704.41
2023-02-23T01:17:10.123Z,101699.16
2023-02-23T01:17:22.757Z,101695.66
2023-02-23T01:17:36.388Z,101696.53
2023-02-23T01:17:49.056Z,101703.56
2023-02-23T01:18:01.950Z,101691.25
2023-02-23T01:18:15.563Z,101700.00
2023-02-23T01:18:28.175Z,101699.13
2023-02-23T01:18:41.896Z,101697.31
2023-02-23T01:18:55.772Z,101700.88
2023-02-23T01:19:09.477Z,101699.06
2023-02-23T01:19:22.284Z,101695.59
2023-02-23T01:19:35.017Z,101695.56
2023-02-23T01:19:47.626Z,101703.44
2023-02-23T01:20:00.205Z,101699.06
2023-02-23T01:20:17.439Z,101698.19
2023-02-23T01:20:31.362Z,101700.00
2023-02-23T01:20:44.941Z,101699.06
2023-02-23T01:20:57.572Z,101704.34
2023-02-23T01:21:15.478Z,101701.72
2023-02-23T01:21:30.735Z,101699.09
2023-02-23T01:21:43.437Z,101695.59
2023-02-23T01:21:56.111Z,101696.50
2023-02-23T01:22:10.231Z,101700.88
2023-02-23T01:22:22.870Z,101695.59
2023-02-23T01:22:35.526Z,101698.25
2023-02-23T01:22:50.500Z,101707.84
2023-02-23T01:23:04.937Z,101696.47
2023-02-23T01:23:17.840Z,101698.19
2023-02-23T01:23:31.950Z,101701.72
2023-02-23T01:23:44.627Z,101703.44
2023-02-23T01:23:59.298Z,101700.88
2023-02-23T01:24:13.068Z,101698.25
2023-02-23T01:24:25.904Z,101700.81
2023-02-23T01:24:39.312Z,101699.09
2023-02-23T01:24:51.947Z,101701.72
2023-02-23T01:25:05.245Z,101694.72
2023-02-23T01:25:18.790Z,101692.91
2023-02-23T01:25:33.985Z,101693.81
2023-02-23T01:25:46.642Z,101697.31
2023-02-23T01:25:59.669Z,101692.06
2023-02-23T01:26:16.285Z,101706.06
2023-02-23T01:26:31.249Z,101693.81
2023-02-23T01:26:45.400Z,101701.72
2023-02-23T01:26:58.034Z,101693.81
2023-02-23T01:27:12.509Z,101690.28
2023-02-23T01:27:26.385Z,101692.97
2023-02-23T01:27:39.543Z,101692.09
2023-02-23T01:27:52.301Z,101697.31
2023-02-23T01:28:05.008Z,101690.34
2023-02-23T01:28:17.851Z,101696.47
2023-02-23T01:28:30.535Z,101696.47
2023-02-23T01:28:43.279Z,101698.25
2023-02-23T01:28:58.796Z,101701.72
2023-02-23T01:29:13.773Z,101695.59
2023-02-23T01:29:27.798Z,101696.50
2023-02-23T01:29:40.457Z,101700.06
2023-02-23T01:29:54.874Z,101692.16
2023-02-23T01:30:09.402Z,101697.41
2023-02-23T01:30:23.512Z,101697.41
2023-02-23T01:30:36.486Z,101699.22
2023-02-23T01:30:49.691Z,101696.59
2023-02-23T01:31:02.360Z,101697.44
2023-02-23T01:31:15.960Z,101693.94
2023-02-23T01:31:30.594Z,101694.81
2023-02-23T01:31:48.136Z,101688.75
2023-02-23T01:32:03.387Z,101693.09
2023-02-23T01:32:17.255Z,101693.94
2023-02-23T01:32:30.995Z,101693.09
2023-02-23T01:32:43.864Z,101687.81
2023-02-23T01:32:56.648Z,101692.19
2023-02-23T01:33:10.423Z,101697.47
2023-02-23T01:33:23.085Z,101691.34
2023-02-23T01:33:35.676Z,101686.94
2023-02-23T01:33:48.430Z,101691.34
2023-02-23T01:34:03.180Z,101693.13
2023-02-23T01:34:15.967Z,101689.56
2023-02-23T01:34:28.831Z,101696.59
2023-02-23T01:34:42.484Z,101694.84
2023-02-23T01:34:55.105Z,101693.16
2023-02-23T01:35:10.353Z,101687.88
2023-02-23T01:35:23.194Z,101699.28
2023-02-23T01:35:36.182Z,101689.63
2023-02-23T01:35:57.695Z,101695.75
2023-02-23T01:36:10.531Z,101693.13
2023-02-23T01:36:23.586Z,101683.53
2023-02-23T01:36:40.024Z,101693.13
2023-02-23T01:36:52.659Z,101689.63
2023-02-23T01:37:05.318Z,101693.13
2023-02-23T01:37:18.257Z,101687.88
2023-02-23T01:37:31.194Z,101693.16
2023-02-23T01:37:44.229Z,101687.03
2023-02-23T01:37:56.842Z,101691.44
2023-02-23T01:38:11.242Z,101688.81
2023-02-23T01:38:23.844Z,101694.00
2023-02-23T01:38:36.665Z,101687.03
2023-02-23T01:38:49.860Z,101687.03
2023-02-23T01:39:06.357Z,101691.44
2023-02-23T01:39:21.048Z,101689.66
2023-02-23T01:39:34.795Z,101691.44
2023-02-23T01:39:47.582Z,101683.56
2023-02-23T01:40:00.261Z,101686.19
2023-02-23T01:40:16.605Z,101692.34
2023-02-23T01:40:29.282Z,101686.19
2023-02-23T01:40:43.830Z,101692.34
2023-02-23T01:40:56.455Z,101687.09
2023-02-23T01:41:10.125Z,101685.38
2023-02-23T01:41:22.906Z,101690.63
2023-02-23T01:41:37.309Z,101692.41
2023-02-23T01:41:52.611Z,101684.53
2023-02-23T01:42:14.098Z,101689.78
2023-02-23T01:42:26.684Z,101687.13
2023-02-23T01:42:40.010Z,101680.09
2023-02-23T01:42:53.680Z,101685.38
2023-02-23T01:43:13.878Z,101685.38
2023-02-23T01:43:26.522Z,101679.25
2023-02-23T01:43:58.899Z,101682.72
2023-02-23T01:44:45.606Z,101675.75
2023-02-23T01:45:22.779Z,101676.56
2023-02-23T01:45:35.911Z,101680.09
2023-02-23T01:45:49.840Z,101680.09
2023-02-23T01:46:02.591Z,101680.09
2023-02-23T01:46:15.269Z,101677.47
2023-02-23T01:46:28.148Z,101676.56
2023-02-23T01:46:43.130Z,101676.56
2023-02-23T01:46:55.835Z,101681.81
2023-02-23T01:47:08.880Z,101680.06
2023-02-23T01:47:21.782Z,101674.84
2023-02-23T01:47:35.194Z,101673.91
2023-02-23T01:47:48.156Z,101672.19
2023-02-23T01:48:07.821Z,101674.75
2023-02-23T01:48:22.911Z,101678.28
2023-02-23T01:48:38.231Z,101677.44
2023-02-23T01:48:53.227Z,101673.88
2023-02-23T01:49:09.195Z,101674.75
2023-02-23T01:49:26.349Z,101675.63
2023-02-23T01:49:40.316Z,101681.75
2023-02-23T01:49:54.093Z,101674.75
2023-02-23T01:50:07.490Z,101677.38
2023-02-23T01:50:21.170Z,101676.56
2023-02-23T01:50:42.558Z,101673.88
2023-02-23T01:50:59.696Z,101676.53
2023-02-23T01:51:18.279Z,101675.66
2023-02-23T01:51:34.675Z,101667.75
2023-02-23T01:51:52.458Z,101678.28
2023-02-23T01:52:10.880Z,101669.53
2023-02-23T01:52:23.687Z,101669.53
2023-02-23T01:52:37.139Z,101676.50
2023-02-23T01:52:52.199Z,101661.59
2023-02-23T01:53:06.853Z,101673.03
2023-02-23T01:53:21.648Z,101675.63
2023-02-23T01:53:40.254Z,101672.13
2023-02-23T01:53:58.473Z,101674.75
2023-02-23T01:54:15.998Z,101672.13
2023-02-23T01:54:32.362Z,101666.00
2023-02-23T01:54:51.287Z,101669.47
2023-02-23T01:55:06.271Z,101672.13
2023-02-23T01:55:24.389Z,101669.53
2023-02-23T01:55:38.050Z,101667.75
2023-02-23T01:55:55.110Z,101670.41
2023-02-23T01:56:11.580Z,101666.94
2023-02-23T01:56:27.881Z,101663.47
2023-02-23T01:56:45.392Z,101658.22
2023-02-23T01:57:01.979Z,101660.00
2023-02-23T01:57:15.023Z,101664.44
2023-02-23T01:57:27.689Z,101662.72
2023-02-23T01:57:41.820Z,101669.72
2023-02-23T01:58:02.218Z,101669.72
2023-02-23T01:58:19.832Z,101659.19
2023-02-23T01:58:34.972Z,101664.44
2023-02-23T01:58:52.479Z,101655.72
2023-02-23T01:59:08.239Z,101661.81
2023-02-23T01:59:20.923Z,101663.59
2023-02-23T01:59:39.984Z,101667.06
2023-02-23T01:59:53.767Z,101662.66
2023-02-23T02:00:13.024Z,101659.19
2023-02-23T02:00:27.289Z,101664.38
2023-02-23T02:00:42.136Z,101664.38
2023-02-23T02:00:57.395Z,101659.97
2023-02-23T02:01:11.641Z,101653.84
2023-02-23T02:01:24.351Z,101656.50
2023-02-23T02:01:38.670Z,101655.66
2023-02-23T02:01:51.772Z,101664.41
2023-02-23T02:02:06.147Z,101661.78
2023-02-23T02:02:23.287Z,101657.38
2023-02-23T02:02:35.981Z,101658.22
2023-02-23T02:02:49.044Z,101663.50
2023-02-23T02:03:08.720Z,101657.38
2023-02-23T02:03:26.957Z,101657.38
2023-02-23T02:03:43.755Z,101656.53
2023-02-23T02:03:58.604Z,101655.66
2023-02-23T02:04:16.624Z,101655.66
2023-02-23T02:04:33.666Z,101648.59
2023-02-23T02:04:46.837Z,101648.59
2023-02-23T02:05:00.474Z,101652.13
2023-02-23T02:05:14.017Z,101655.53
2023-02-23T02:05:29.921Z,101652.91
2023-02-23T02:05:43.256Z,101654.69
2023-02-23T02:05:56.983Z,101652.06
2023-02-23T02:06:14.688Z,101659.97
2023-02-23T02:06:29.262Z,101651.13
2023-02-23T02:06:43.409Z,101652.06
2023-02-23T02:06:56.880Z,101655.53
2023-02-23T02:07:11.199Z,101652.06
2023-02-23T02:07:27.985Z,101656.44
2023-02-23T02:07:46.193Z,101654.69
2023-02-23T02:07:59.631Z,101650.28
2023-02-23T02:08:13.068Z,101650.22
2023-02-23T02:08:28.509Z,101646.78
2023-02-23T02:08:46.544Z,101659.03
2023-02-23T02:09:06.933Z,101649.38
2023-02-23T02:09:25.652Z,101652.06
2023-02-23T02:09:40.353Z,101650.31
2023-02-23T02:10:10.380Z,101652.91
2023-02-23T02:10:40.618Z,101645.00
2023-02-23T02:10:56.077Z,101658.09
2023-02-23T02:11:25.944Z,101647.59
2023-02-23T02:11:39.283Z,101655.44
2023-02-23T02:11:54.273Z,101655.44
2023-02-23T02:12:11.812Z,101644.03
2023-02-23T02:12:26.043Z,101651.06
2023-02-23T02:12:39.292Z,101651.09
2023-02-23T02:12:56.420Z,101651.97
2023-02-23T02:13:10.478Z,101649.34
2023-02-23T02:13:29.405Z,101647.56
2023-02-23T02:13:42.377Z,101649.34
2023-02-23T02:13:58.965Z,101651.97
2023-02-23T02:14:15.954Z,101651.97
2023-02-23T02:14:30.989Z,101650.22
2023-02-23T02:14:45.678Z,101654.59
2023-02-23T02:15:00.250Z,101648.41
2023-02-23T02:15:17.217Z,101651.97
2023-02-23T02:15:38.713Z,101648.41
2023-02-23T02:16:24.001Z,101642.25
2023-02-23T02:16:53.319Z,101642.31
2023-02-23T02:17:30.084Z,101651.97
2023-02-23T02:17:53.510Z,101647.66
2023-02-23T02:18:18.524Z,101646.78
2023-02-23T02:18:38.331Z,101646.78
2023-02-23T02:19:18.778Z,101645.91
2023-02-23T02:20:14.671Z,101640.59
2023-02-23T02:20:52.486Z,101652.91
2023-02-23T02:21:42.322Z,101648.50
2023-02-23T02:22:22.234Z,101644.09
2023-02-23T02:23:16.097Z,101644.97
2023-02-23T02:24:03.359Z,101637.97
2023-02-23T02:24:48.497Z,101642.28
2023-02-23T02:25:42.284Z,101644.06
2023-02-23T02:26:05.326Z,101641.53
2023-02-23T02:26:30.487Z,101640.63
2023-02-23T02:27:00.788Z,101642.41
2023-02-23T02:27:34.246Z,101638.91
2023-02-23T02:28:13.838Z,101645.03
2023-02-23T02:28:41.933Z,101641.53
2023-02-23T02:29:33.686Z,101640.59
2023-02-23T02:30:13.595Z,101643.25
2023-02-23T02:30:49.726Z,101638.91
2023-02-23T02:31:51.526Z,101646.78
2023-02-23T02:32:40.111Z,101644.19
2023-02-23T02:33:16.443Z,101639.81
2023-02-23T02:33:49.515Z,101638.06
2023-02-23T02:34:30.478Z,101639.78
2023-02-23T02:35:09.305Z,101639.78
2023-02-23T02:35:56.523Z,101636.25
2023-02-23T02:36:55.877Z,101642.38
2023-02-23T02:37:47.756Z,101636.25
2023-02-23T02:38:11.828Z,101648.50
2023-02-23T02:38:50.890Z,101637.06
2023-02-23T02:39:17.481Z,101633.56
2023-02-23T02:39:40.629Z,101640.53
2023-02-23T02:40:15.482Z,101636.16
2023-02-23T02:40:34.543Z,101635.34
2023-02-23T02:40:54.436Z,101635.34
2023-02-23T02:41:14.229Z,101639.69
2023-02-23T02:41:35.973Z,101640.59
2023-02-23T02:41:56.469Z,101638.81
2023-02-23T02:42:20.560Z,101635.38
2023-02-23T02:42:39.937Z,101631.84
2023-02-23T02:43:08.189Z,101635.34
2023-02-23T02:43:27.363Z,101639.75
2023-02-23T02:43:51.013Z,101637.97
2023-02-23T02:44:16.336Z,101643.25
2023-02-23T02:44:38.052Z,101634.50
2023-02-23T02:44:58.396Z,101638.06
2023-02-23T02:45:22.138Z,101636.28
2023-02-23T02:45:41.648Z,101638.94
2023-02-23T02:46:04.130Z,101625.75
2023-02-23T02:46:19.767Z,101638.06
2023-02-23T02:46:38.034Z,101637.19
2023-02-23T02:46:59.129Z,101636.31
2023-02-23T02:47:16.432Z,101637.19
2023-02-23T02:47:35.739Z,101637.19
2023-02-23T02:47:58.495Z,101643.34
2023-02-23T02:48:20.867Z,101639.78
2023-02-23T02:48:41.848Z,101634.53
2023-02-23T02:49:01.655Z,101637.16
2023-02-23T02:49:17.913Z,101632.81
2023-02-23T02:49:33.394Z,101639.78
2023-02-23T02:49:52.340Z,101636.28
2023-02-23T02:50:11.568Z,101637.22
2023-02-23T02:50:31.438Z,101636.31
2023-02-23T02:50:52.109Z,101642.44
2023-02-23T02:51:10.088Z,101637.19
2023-02-23T02:51:28.510Z,101639.88
2023-02-23T02:51:49.126Z,101642.44
2023-02-23T02:52:12.879Z,101645.97
2023-02-23T02:52:32.699Z,101635.47
2023-02-23T02:52:52.455Z,101642.44
2023-02-23T02:53:08.574Z,101642.50
2023-02-23T02:53:27.601Z,101641.59
2023-02-23T02:53:46.378Z,101636.31
2023-02-23T02:54:07.046Z,101636.31
2023-02-23T02:54:25.862Z,101636.31
2023-02-23T02:54:41.344Z,101635.47
2023-02-23T02:54:58.127Z,101642.44
2023-02-23T02:55:16.134Z,101640.72
2023-02-23T02:55:34.512Z,101637.19
2023-02-23T02:55:48.265Z,101634.53
2023-02-23T02:56:05.824Z,101630.19
2023-02-23T02:56:22.497Z,101629.28
2023-02-23T02:56:40.502Z,101640.72
2023-02-23T02:56:57.753Z,101636.31
2023-02-23T02:57:15.031Z,101636.31
2023-02-23T02:57:29.993Z,101638.13
2023-02-23T02:57:46.819Z,101637.22
2023-02-23T02:58:02.263Z,101637.22
2023-02-23T02:58:17.787Z,101632.88
2023-02-23T02:58:30.561Z,101639.03
2023-02-23T02:58:44.684Z,101635.50
2023-02-23T02:58:57.641Z,101632.94
2023-02-23T02:59:33.817Z,101632.03
2023-02-23T03:00:07.280Z,101638.22
2023-02-23T03:00:42.520Z,101635.63
2023-02-23T03:01:13.914Z,101640.91
2023-02-23T03:01:45.158Z,101637.38
2023-02-23T03:02:16.826Z,101636.47
2023-02-23T03:02:50.383Z,101638.22
2023-02-23T03:03:21.851Z,101637.28
2023-02-23T03:03:55.856Z,101634.72
2023-02-23T03:04:40.106Z,101635.59
2023-02-23T03:05:11.443Z,101634.75
2023-02-23T03:05:45.988Z,101634.75
2023-02-23T03:06:17.664Z,101634.75
2023-02-23T03:06:52.382Z,101638.25
2023-02-23T03:07:29.122Z,101637.34
2023-02-23T03:08:09.670Z,101635.63
2023-02-23T03:08:50.242Z,101632.16
2023-02-23T03:09:29.924Z,101638.25
2023-02-23T03:10:06.232Z,101640.97
2023-02-23T03:10:47.448Z,101637.44
2023-02-23T03:11:22.219Z,101637.50
2023-02-23T03:11:59.261Z,101640.16
2023-02-23T03:12:41.034Z,101636.69
2023-02-23T03:13:22.082Z,101641.97
2023-02-23T03:14:05.275Z,101633.19
2023-02-23T03:14:45.897Z,101640.19
2023-02-23T03:15:26.634Z,101632.34
2023-02-23T03:16:11.066Z,101637.59